createdAt,value
2023-02-05T00:00:48.419Z,0.90
2023-02-05T00:03:15.134Z,0.80
2023-02-05T00:05:42.239Z,0.70
2023-02-05T00:08:08.876Z,0.70
2023-02-05T00:10:40.403Z,0.60
2023-02-05T00:13:10.257Z,0.60
2023-02-05T00:15:40.076Z,0.70
2023-02-05T00:18:09.072Z,0.70
2023-02-05T00:20:41.464Z,0.70
2023-02-05T00:23:10.511Z,0.80
2023-02-05T00:25:37.137Z,0.80
2023-02-05T00:28:06.267Z,0.80
2023-02-05T00:30:35.396Z,0.90
2023-02-05T00:33:04.286Z,0.90
2023-02-05T00:35:30.984Z,0.90
2023-02-05T00:38:02.357Z,0.80
2023-02-05T00:40:29.091Z,0.80
2023-02-05T00:42:58.126Z,0.80
2023-02-05T00:45:32.356Z,0.80
2023-02-05T00:48:01.263Z,0.80
2023-02-05T00:50:28.539Z,0.80
2023-02-05T00:52:55.368Z,0.70
2023-02-05T00:55:22.209Z,0.70
2023-02-05T00:57:48.860Z,0.70
2023-02-05T01:00:15.554Z,0.60
2023-02-05T01:02:42.245Z,0.70
2023-02-05T01:05:11.465Z,0.60
2023-02-05T01:07:40.741Z,0.60
2023-02-05T01:10:07.614Z,0.40
2023-02-05T01:12:36.658Z,0.40
2023-02-05T01:15:03.884Z,0.40
2023-02-05T01:17:32.886Z,0.40
2023-02-05T01:19:59.491Z,0.40
2023-02-05T01:22:26.125Z,0.40
2023-02-05T01:24:52.888Z,0.30
2023-02-05T01:27:21.693Z,0.40
2023-02-05T01:29:48.261Z,0.30
2023-02-05T01:32:14.913Z,0.40
2023-02-05T01:34:41.614Z,0.30
2023-02-05T01:37:08.240Z,0.40
2023-02-05T01:39:36.918Z,0.40
2023-02-05T01:42:33.159Z,0.50
2023-02-05T01:45:18.542Z,0.50
2023-02-05T01:47:47.552Z,0.50
2023-02-05T01:50:17.049Z,0.50
2023-02-05T01:52:43.901Z,0.40
2023-02-05T01:55:10.651Z,0.40
2023-02-05T01:57:37.895Z,0.40
2023-02-05T02:00:05.808Z,0.40
2023-02-05T02:02:34.283Z,0.40
2023-02-05T02:05:03.190Z,0.30
2023-02-05T02:07:29.838Z,0.30
2023-02-05T02:09:58.923Z,0.40
2023-02-05T02:12:30.450Z,0.30
2023-02-05T02:15:00.036Z,0.30
2023-02-05T02:17:29.475Z,0.30
2023-02-05T02:19:58.858Z,0.30
2023-02-05T02:22:25.454Z,0.20
2023-02-05T02:24:52.042Z,0.20
2023-02-05T02:27:21.681Z,0.20
2023-02-05T02:29:50.668Z,0.10
2023-02-05T02:32:43.654Z,0.10
2023-02-05T02:35:26.359Z,0.00
2023-02-05T02:38:00.660Z,0.00
2023-02-05T02:40:37.487Z,0.00
2023-02-05T02:43:04.061Z,0.00
2023-02-05T02:45:34.234Z,0.00
2023-02-05T02:48:03.443Z,0.10
2023-02-05T02:50:35.373Z,0.10
2023-02-05T02:53:06.187Z,0.10
2023-02-05T02:55:35.268Z,0.10
2023-02-05T02:58:03.174Z,0.00
2023-02-05T03:00:30.484Z,0.10
2023-02-05T03:03:01.380Z,0.20
2023-02-05T03:05:33.301Z,0.20
2023-02-05T03:08:08.732Z,0.20
2023-02-05T03:10:41.103Z,0.20
2023-02-05T03:13:09.285Z,0.30
2023-02-05T03:15:38.670Z,0.30
2023-02-05T03:18:05.516Z,0.40
2023-02-05T03:20:34.860Z,0.50
2023-02-05T03:23:01.584Z,0.50
2023-02-05T03:25:31.103Z,0.50
2023-02-05T03:27:58.138Z,0.60
2023-02-05T03:30:27.762Z,0.60
2023-02-05T03:32:54.424Z,0.60
2023-02-05T03:35:23.920Z,0.60
2023-02-05T03:38:01.271Z,0.60
2023-02-05T03:40:27.860Z,0.60
2023-02-05T03:42:57.365Z,0.70
2023-02-05T03:45:33.519Z,0.70
2023-02-05T03:48:13.310Z,0.70
2023-02-05T03:51:01.294Z,0.70
2023-02-05T03:53:30.564Z,0.80
2023-02-05T03:56:03.361Z,0.70
2023-02-05T03:58:38.773Z,0.80
2023-02-05T04:01:06.254Z,0.80
2023-02-05T04:03:35.004Z,0.90
2023-02-05T04:06:04.720Z,0.90
2023-02-05T04:08:31.481Z,0.80
2023-02-05T04:10:58.064Z,0.80
2023-02-05T04:13:24.663Z,0.80
2023-02-05T04:15:51.663Z,0.80
2023-02-05T04:18:18.355Z,0.90
2023-02-05T04:20:45.080Z,0.90
2023-02-05T04:23:14.153Z,0.80
2023-02-05T04:25:40.842Z,0.80
2023-02-05T04:28:07.600Z,0.90
2023-02-05T04:30:34.347Z,0.80
2023-02-05T04:33:01.052Z,0.80
2023-02-05T04:35:27.656Z,0.80
2023-02-05T04:37:54.264Z,0.80
2023-02-05T04:40:20.913Z,0.80
2023-02-05T04:42:47.477Z,0.90
2023-02-05T04:45:14.065Z,0.80
2023-02-05T04:47:40.687Z,0.90
2023-02-05T04:50:07.380Z,0.90
2023-02-05T04:52:34.077Z,1.10
2023-02-05T04:55:00.646Z,1.00
2023-02-05T04:57:27.352Z,1.00
2023-02-05T04:59:53.923Z,1.00
2023-02-05T05:02:20.545Z,1.00
2023-02-05T05:04:49.793Z,1.00
2023-02-05T05:07:16.437Z,1.00
2023-02-05T05:09:45.545Z,1.00
2023-02-05T05:12:14.721Z,0.90
2023-02-05T05:14:41.316Z,0.90
2023-02-05T05:17:07.928Z,0.80
2023-02-05T05:19:34.670Z,0.80
2023-02-05T05:22:03.493Z,0.80
2023-02-05T05:24:30.116Z,0.70
2023-02-05T05:26:56.748Z,0.70
2023-02-05T05:29:25.854Z,0.70
2023-02-05T05:31:52.866Z,0.70
2023-02-05T05:34:19.818Z,0.70
2023-02-05T05:36:47.569Z,0.70
2023-02-05T05:39:33.313Z,0.70
2023-02-05T05:42:18.591Z,0.70
2023-02-05T05:44:45.272Z,0.60
2023-02-05T05:47:13.968Z,0.60
2023-02-05T05:49:42.926Z,0.70
2023-02-05T05:52:10.016Z,0.70
2023-02-05T05:54:36.676Z,0.80
2023-02-05T05:57:06.558Z,0.90
2023-02-05T05:59:35.491Z,0.90
2023-02-05T06:02:02.438Z,0.90
2023-02-05T06:04:31.460Z,0.90
2023-02-05T06:06:59.220Z,0.90
2023-02-05T06:09:25.923Z,0.90
2023-02-05T06:11:52.579Z,1.00
2023-02-05T06:14:19.166Z,0.90
2023-02-05T06:16:48.247Z,0.90
2023-02-05T06:19:14.829Z,0.90
2023-02-05T06:21:41.444Z,0.90
2023-02-05T06:24:08.157Z,1.00
2023-02-05T06:26:34.796Z,1.00
2023-02-05T06:29:03.952Z,1.00
2023-02-05T06:31:31.196Z,1.00
2023-02-05T06:33:57.949Z,1.00
2023-02-05T06:36:24.660Z,1.00
2023-02-05T06:38:51.345Z,1.00
2023-02-05T06:41:20.431Z,1.00
2023-02-05T06:43:49.448Z,1.00
2023-02-05T06:46:16.211Z,1.00
2023-02-05T06:48:42.826Z,1.00
2023-02-05T06:51:09.569Z,1.00
2023-02-05T06:53:38.325Z,1.10
2023-02-05T06:56:07.463Z,1.10
2023-02-05T06:58:34.135Z,1.20
2023-02-05T07:01:01.712Z,1.10
2023-02-05T07:03:28.437Z,1.20
2023-02-05T07:05:55.076Z,1.20
2023-02-05T07:08:21.743Z,1.20
2023-02-05T07:10:48.384Z,1.20
2023-02-05T07:13:17.362Z,1.30
2023-02-05T07:15:44.432Z,1.30
2023-02-05T07:18:11.044Z,1.30
2023-02-05T07:20:37.781Z,1.40
2023-02-05T07:23:05.536Z,1.30
2023-02-05T07:25:38.010Z,1.40
2023-02-05T07:28:08.100Z,1.50
2023-02-05T07:30:35.624Z,1.50
2023-02-05T07:33:03.563Z,1.50
2023-02-05T07:35:30.978Z,1.50
2023-02-05T07:37:57.590Z,1.60
2023-02-05T07:40:24.281Z,1.70
2023-02-05T07:42:53.061Z,1.70
2023-02-05T07:45:19.669Z,1.80
2023-02-05T07:47:49.828Z,1.80
2023-02-05T07:50:19.046Z,1.80
2023-02-05T07:52:45.803Z,1.70
2023-02-05T07:55:12.391Z,1.70
2023-02-05T07:57:41.227Z,1.70
2023-02-05T08:00:09.731Z,1.70
2023-02-05T08:02:38.918Z,1.80
2023-02-05T08:05:05.812Z,1.90
2023-02-05T08:07:32.434Z,1.90
2023-02-05T08:10:01.539Z,2.00
2023-02-05T08:12:28.216Z,2.00
2023-02-05T08:14:55.109Z,2.00
2023-02-05T08:17:21.693Z,2.00
2023-02-05T08:19:48.287Z,2.00
2023-02-05T08:22:14.955Z,2.00
2023-02-05T08:24:41.612Z,2.00
2023-02-05T08:27:08.249Z,2.10
2023-02-05T08:29:34.911Z,2.10
2023-02-05T08:32:01.582Z,2.10
2023-02-05T08:34:28.645Z,2.10
2023-02-05T08:36:57.784Z,2.10
2023-02-05T08:39:26.099Z,2.10
2023-02-05T08:41:52.771Z,2.00
2023-02-05T08:44:21.493Z,2.10
2023-02-05T08:46:50.412Z,2.20
2023-02-05T08:49:17.700Z,2.20
2023-02-05T08:51:44.346Z,2.40
2023-02-05T08:54:13.261Z,2.50
2023-02-05T08:56:40.692Z,2.70
2023-02-05T08:59:08.282Z,2.80
2023-02-05T09:01:37.275Z,2.90
2023-02-05T09:04:04.844Z,2.90
2023-02-05T09:06:31.498Z,3.00
2023-02-05T09:08:58.237Z,3.00
2023-02-05T09:11:26.733Z,3.00
2023-02-05T09:13:56.044Z,2.90
2023-02-05T09:16:22.873Z,2.90
2023-02-05T09:18:49.501Z,3.00
2023-02-05T09:21:16.420Z,2.90
2023-02-05T09:23:43.033Z,2.90
2023-02-05T09:26:09.735Z,2.90
2023-02-05T09:28:36.561Z,3.00
2023-02-05T09:31:11.604Z,3.10
2023-02-05T09:33:38.370Z,3.00
2023-02-05T09:36:08.771Z,3.00
2023-02-05T09:38:35.707Z,3.00
2023-02-05T09:41:08.434Z,3.10
2023-02-05T09:43:35.006Z,3.10
2023-02-05T09:46:08.263Z,3.10
2023-02-05T09:48:50.966Z,3.10
2023-02-05T09:51:18.985Z,3.10
2023-02-05T09:53:47.805Z,3.10
2023-02-05T09:56:15.628Z,3.20
2023-02-05T09:58:46.606Z,3.20
2023-02-05T10:01:16.238Z,3.20
2023-02-05T10:03:43.099Z,3.30
2023-02-05T10:06:09.742Z,3.30
2023-02-05T10:08:54.988Z,3.40
2023-02-05T10:11:40.414Z,3.40
2023-02-05T10:14:25.765Z,3.50
2023-02-05T10:16:54.882Z,3.50
2023-02-05T10:19:31.107Z,3.70
2023-02-05T10:22:13.268Z,3.70
2023-02-05T10:24:54.686Z,3.70
2023-02-05T10:27:26.446Z,3.80
2023-02-05T10:30:06.784Z,3.80
2023-02-05T10:32:39.559Z,3.80
2023-02-05T10:35:19.850Z,3.90
2023-02-05T10:37:50.991Z,4.00
2023-02-05T10:40:39.202Z,4.10
2023-02-05T10:43:17.991Z,4.10
2023-02-05T10:45:44.944Z,4.00
2023-02-05T10:48:29.045Z,3.90
2023-02-05T10:50:58.668Z,3.90
2023-02-05T10:53:28.672Z,3.80
2023-02-05T10:56:00.302Z,3.70
2023-02-05T10:58:46.465Z,3.70
2023-02-05T11:01:20.960Z,3.70
2023-02-05T11:03:53.513Z,3.70
2023-02-05T11:06:21.574Z,3.70
2023-02-05T11:08:48.500Z,3.60
2023-02-05T11:11:28.349Z,3.60
2023-02-05T11:13:59.871Z,3.70
2023-02-05T11:16:37.466Z,3.70
2023-02-05T11:19:17.150Z,3.60
2023-02-05T11:21:51.920Z,3.60
2023-02-05T11:24:44.818Z,3.60
2023-02-05T11:27:26.906Z,3.70
2023-02-05T11:30:00.314Z,3.70
2023-02-05T11:32:29.994Z,3.70
2023-02-05T11:35:09.515Z,3.70
2023-02-05T11:37:38.667Z,3.70
2023-02-05T11:40:14.758Z,3.70
2023-02-05T11:42:49.922Z,3.70
2023-02-05T11:45:19.742Z,3.70
2023-02-05T11:47:46.432Z,3.80
2023-02-05T11:50:24.147Z,3.70
2023-02-05T11:52:51.600Z,3.80
2023-02-05T11:55:31.952Z,3.70
2023-02-05T11:57:59.806Z,3.70
2023-02-05T12:00:29.132Z,3.70
2023-02-05T12:03:27.192Z,3.70
2023-02-05T12:06:04.580Z,3.60
2023-02-05T12:08:33.616Z,3.70
2023-02-05T12:11:06.765Z,3.70
2023-02-05T12:13:45.794Z,3.70
2023-02-05T12:16:15.617Z,3.80
2023-02-05T12:18:42.298Z,3.80
2023-02-05T12:21:08.873Z,3.80
2023-02-05T12:23:41.194Z,3.90
2023-02-05T12:26:23.206Z,3.90
2023-02-05T12:29:08.623Z,3.90
2023-02-05T12:31:48.109Z,3.90
2023-02-05T12:34:17.126Z,4.00
2023-02-05T12:36:46.255Z,4.00
2023-02-05T12:39:21.405Z,4.00
2023-02-05T12:41:47.970Z,4.10
2023-02-05T12:44:22.416Z,4.10
2023-02-05T12:46:49.119Z,4.10
2023-02-05T12:49:24.347Z,4.20
2023-02-05T12:52:17.258Z,4.20
2023-02-05T12:54:49.829Z,4.20
2023-02-05T12:57:19.500Z,4.20
2023-02-05T12:59:51.512Z,4.30
2023-02-05T13:02:20.499Z,4.30
2023-02-05T13:04:53.976Z,4.30
2023-02-05T13:07:26.605Z,4.30
2023-02-05T13:09:56.540Z,4.30
2023-02-05T13:12:23.977Z,4.30
2023-02-05T13:14:57.532Z,4.30
2023-02-05T13:17:26.499Z,4.20
2023-02-05T13:19:56.123Z,4.20
2023-02-05T13:22:50.183Z,4.20
2023-02-05T13:25:42.684Z,4.20
2023-02-05T13:28:37.246Z,4.20
2023-02-05T13:31:04.763Z,4.20
2023-02-05T13:33:34.333Z,4.20
2023-02-05T13:36:00.955Z,4.20
2023-02-05T13:38:27.576Z,4.20
2023-02-05T13:41:25.968Z,4.20
2023-02-05T13:44:07.852Z,4.20
2023-02-05T13:46:58.152Z,4.10
2023-02-05T13:49:43.670Z,4.00
2023-02-05T13:52:33.451Z,4.00
2023-02-05T13:55:14.608Z,4.00
2023-02-05T13:57:52.946Z,4.10
2023-02-05T14:00:19.732Z,4.10
2023-02-05T14:02:50.760Z,4.10
2023-02-05T14:05:27.338Z,4.10
2023-02-05T14:07:57.684Z,4.20
2023-02-05T14:10:27.099Z,4.10
2023-02-05T14:12:54.125Z,4.20
2023-02-05T14:15:23.194Z,4.10
2023-02-05T14:17:49.806Z,4.10
2023-02-05T14:20:25.693Z,4.10
2023-02-05T14:22:53.155Z,4.10
2023-02-05T14:25:35.419Z,4.10
2023-02-05T14:28:02.366Z,4.00
2023-02-05T14:30:52.107Z,4.00
2023-02-05T14:33:27.986Z,4.00
2023-02-05T14:35:58.348Z,4.00
2023-02-05T14:38:34.306Z,3.90
2023-02-05T14:41:15.127Z,4.00
2023-02-05T14:43:44.029Z,4.00
2023-02-05T14:46:25.203Z,3.90
2023-02-05T14:48:51.981Z,3.90
2023-02-05T14:51:24.839Z,3.90
2023-02-05T14:54:02.042Z,3.90
2023-02-05T14:56:35.912Z,4.00
2023-02-05T14:59:17.769Z,3.90
2023-02-05T15:01:50.016Z,3.90
2023-02-05T15:04:29.605Z,3.90
2023-02-05T15:06:59.332Z,4.00
2023-02-05T15:09:47.486Z,3.90
2023-02-05T15:12:31.591Z,3.90
2023-02-05T15:14:58.297Z,3.80
2023-02-05T15:17:35.291Z,3.80
2023-02-05T15:20:06.145Z,3.70
2023-02-05T15:22:37.228Z,3.70
2023-02-05T15:25:09.981Z,3.70
2023-02-05T15:27:40.858Z,3.70
2023-02-05T15:30:08.168Z,3.50
2023-02-05T15:32:43.274Z,3.60
2023-02-05T15:35:15.110Z,3.60
2023-02-05T15:38:00.595Z,3.70
2023-02-05T15:40:29.626Z,3.60
2023-02-05T15:43:03.201Z,3.60
2023-02-05T15:45:31.891Z,3.50
2023-02-05T15:48:03.046Z,3.40
2023-02-05T15:50:30.838Z,3.30
2023-02-05T15:52:58.058Z,3.30
2023-02-05T15:55:26.783Z,3.20
2023-02-05T15:57:58.574Z,3.20
2023-02-05T16:00:27.230Z,3.20
2023-02-05T16:02:59.859Z,3.20
2023-02-05T16:05:27.630Z,3.20
2023-02-05T16:07:58.866Z,3.30
2023-02-05T16:10:27.264Z,3.30
2023-02-05T16:12:59.701Z,3.30
2023-02-05T16:15:48.517Z,3.30
2023-02-05T16:18:21.177Z,3.30
2023-02-05T16:20:51.746Z,3.20
2023-02-05T16:23:30.256Z,3.20
2023-02-05T16:26:01.323Z,3.20
2023-02-05T16:28:43.105Z,3.10
2023-02-05T16:31:15.586Z,3.10
2023-02-05T16:33:45.945Z,3.10
2023-02-05T16:36:17.729Z,3.10
2023-02-05T16:38:49.276Z,3.10
2023-02-05T16:41:18.769Z,3.10
2023-02-05T16:43:45.472Z,3.10
2023-02-05T16:46:13.996Z,3.10
2023-02-05T16:48:49.269Z,3.10
2023-02-05T16:51:36.516Z,3.00
2023-02-05T16:54:21.992Z,3.00
2023-02-05T16:56:56.970Z,3.00
2023-02-05T16:59:30.149Z,3.00
2023-02-05T17:01:59.284Z,2.90
2023-02-05T17:04:34.411Z,2.90
2023-02-05T17:07:02.196Z,3.00
2023-02-05T17:09:31.886Z,2.90
2023-02-05T17:12:17.405Z,2.90
2023-02-05T17:14:55.530Z,2.90
2023-02-05T17:17:22.753Z,2.90
2023-02-05T17:20:07.281Z,2.90
2023-02-05T17:22:34.717Z,2.90
2023-02-05T17:25:05.766Z,2.90
2023-02-05T17:27:38.882Z,2.90
2023-02-05T17:30:06.848Z,2.90
2023-02-05T17:32:33.642Z,2.90
2023-02-05T17:35:00.511Z,2.90
2023-02-05T17:37:27.148Z,2.90
2023-02-05T17:39:55.505Z,2.90
2023-02-05T17:42:31.049Z,2.90
2023-02-05T17:44:57.652Z,3.00
2023-02-05T17:47:29.195Z,3.00
2023-02-05T17:49:57.807Z,3.00
2023-02-05T17:52:26.839Z,3.00
2023-02-05T17:54:53.958Z,3.10
2023-02-05T17:57:21.509Z,3.10
2023-02-05T17:59:48.808Z,3.10
2023-02-05T18:02:15.773Z,3.00
2023-02-05T18:04:43.514Z,3.00
2023-02-05T18:07:36.683Z,2.90
2023-02-05T18:10:03.501Z,2.90
2023-02-05T18:12:30.256Z,2.90
2023-02-05T18:14:56.884Z,2.90
2023-02-05T18:17:23.525Z,3.00
2023-02-05T18:19:52.478Z,3.00
2023-02-05T18:22:19.156Z,3.00
2023-02-05T18:24:45.865Z,3.00
2023-02-05T18:27:14.933Z,3.00
2023-02-05T18:29:43.589Z,3.00
2023-02-05T18:32:13.934Z,2.90
2023-02-05T18:34:40.791Z,2.90
2023-02-05T18:37:09.624Z,2.90
2023-02-05T18:39:36.311Z,2.90
2023-02-05T18:42:03.052Z,3.00
2023-02-05T18:44:31.972Z,3.00
2023-02-05T18:47:01.039Z,3.00
2023-02-05T18:49:27.704Z,3.00
2023-02-05T18:51:54.293Z,3.00
2023-02-05T18:54:20.881Z,3.00
2023-02-05T18:56:48.636Z,3.00
2023-02-05T18:59:16.611Z,3.00
2023-02-05T19:01:43.466Z,3.00
2023-02-05T19:04:12.357Z,3.00
2023-02-05T19:06:42.955Z,3.00
2023-02-05T19:09:09.903Z,3.00
2023-02-05T19:11:40.926Z,3.10
2023-02-05T19:14:11.072Z,3.20
2023-02-05T19:16:38.592Z,3.20
2023-02-05T19:19:05.376Z,3.20
2023-02-05T19:21:34.578Z,3.30
2023-02-05T19:24:05.689Z,3.20
2023-02-05T19:26:33.112Z,3.10
2023-02-05T19:29:04.730Z,3.00
2023-02-05T19:31:32.661Z,2.90
2023-02-05T19:34:00.134Z,2.90
2023-02-05T19:36:29.177Z,2.80
2023-02-05T19:38:59.061Z,2.80
2023-02-05T19:41:26.538Z,2.80
2023-02-05T19:43:54.967Z,2.90
2023-02-05T19:46:25.611Z,2.90
2023-02-05T19:48:52.862Z,2.90
2023-02-05T19:51:19.781Z,2.90
2023-02-05T19:53:46.692Z,3.00
2023-02-05T19:56:17.705Z,2.90
2023-02-05T19:58:46.488Z,2.90
2023-02-05T20:01:26.466Z,2.90
2023-02-05T20:03:57.250Z,3.00
2023-02-05T20:06:25.115Z,3.00
2023-02-05T20:08:52.151Z,2.90
2023-02-05T20:11:19.188Z,2.90
2023-02-05T20:13:46.638Z,3.00
2023-02-05T20:16:15.098Z,3.00
2023-02-05T20:18:42.169Z,3.00
2023-02-05T20:21:14.482Z,3.00
2023-02-05T20:23:41.401Z,3.00
2023-02-05T20:26:08.731Z,3.00
2023-02-05T20:28:56.877Z,3.10
2023-02-05T20:31:33.450Z,3.20
2023-02-05T20:34:01.465Z,3.20
2023-02-05T20:36:30.685Z,3.20
2023-02-05T20:38:57.943Z,3.10
2023-02-05T20:41:26.839Z,3.10
2023-02-05T20:43:53.545Z,3.00
2023-02-05T20:46:20.722Z,3.00
2023-02-05T20:48:48.485Z,3.00
2023-02-05T20:51:16.623Z,3.00
2023-02-05T20:53:45.931Z,3.00
2023-02-05T20:56:16.979Z,3.00
2023-02-05T20:58:43.849Z,3.10
2023-02-05T21:01:16.607Z,3.10
2023-02-05T21:03:44.627Z,3.20
2023-02-05T21:06:11.471Z,3.20
2023-02-05T21:08:39.002Z,3.20
2023-02-05T21:11:05.896Z,3.30
2023-02-05T21:13:32.876Z,3.30
2023-02-05T21:16:00.664Z,3.30
2023-02-05T21:18:27.892Z,3.30
2023-02-05T21:20:57.261Z,3.30
2023-02-05T21:23:26.299Z,3.30
2023-02-05T21:25:53.017Z,3.30
2023-02-05T21:28:19.718Z,3.20
2023-02-05T21:30:50.921Z,3.20
2023-02-05T21:33:18.188Z,3.20
2023-02-05T21:35:44.779Z,3.20
2023-02-05T21:38:13.761Z,3.20
2023-02-05T21:40:40.418Z,3.20
2023-02-05T21:43:09.396Z,3.20
2023-02-05T21:45:37.013Z,3.20
2023-02-05T21:48:03.825Z,3.30
2023-02-05T21:50:30.715Z,3.20
2023-02-05T21:52:59.551Z,3.20
2023-02-05T21:55:26.861Z,3.30
2023-02-05T21:57:55.935Z,3.30
2023-02-05T22:00:22.579Z,3.40
2023-02-05T22:02:49.197Z,3.40
2023-02-05T22:05:16.529Z,3.40
2023-02-05T22:07:43.178Z,3.30
2023-02-05T22:10:12.057Z,3.30
2023-02-05T22:12:38.699Z,3.30
2023-02-05T22:15:05.553Z,3.30
2023-02-05T22:17:33.222Z,3.30
2023-02-05T22:19:59.808Z,3.40
2023-02-05T22:22:26.449Z,3.30
2023-02-05T22:24:53.104Z,3.30
2023-02-05T22:27:19.806Z,3.30
2023-02-05T22:29:46.878Z,3.20
2023-02-05T22:32:13.459Z,3.30
2023-02-05T22:34:42.591Z,3.20
2023-02-05T22:37:10.090Z,3.20
2023-02-05T22:39:42.813Z,3.20
2023-02-05T22:42:09.511Z,3.20
2023-02-05T22:44:38.507Z,3.20
2023-02-05T22:47:05.138Z,3.20
2023-02-05T22:49:31.748Z,3.30
2023-02-05T22:51:58.407Z,3.30
2023-02-05T22:54:27.481Z,3.30
2023-02-05T22:56:54.153Z,3.20
2023-02-05T22:59:20.784Z,3.20
2023-02-05T23:01:47.355Z,3.20
2023-02-05T23:04:14.188Z,3.10
2023-02-05T23:06:43.119Z,3.10
2023-02-05T23:09:13.685Z,3.20
2023-02-05T23:11:43.264Z,3.20
2023-02-05T23:14:13.886Z,3.20
2023-02-05T23:16:42.347Z,3.20
2023-02-05T23:19:16.026Z,3.30
2023-02-05T23:21:42.696Z,3.30
2023-02-05T23:24:12.748Z,3.30
2023-02-05T23:26:42.084Z,3.30
2023-02-05T23:29:09.481Z,3.30
2023-02-05T23:31:36.318Z,3.30
2023-02-05T23:34:03.112Z,3.40
2023-02-05T23:36:29.791Z,3.40
2023-02-05T23:38:56.588Z,3.30
2023-02-05T23:41:36.089Z,3.30
2023-02-05T23:44:04.111Z,3.20
2023-02-05T23:46:33.370Z,3.40
2023-02-05T23:49:04.914Z,3.40
2023-02-05T23:51:31.875Z,3.40
2023-02-05T23:53:58.573Z,3.40
2023-02-05T23:56:25.349Z,3.40
2023-02-05T23:58:51.983Z,3.40
